Meridien — FT2092 — position and weather

sailwx.info

Track history (hours):
 
Tides and Currents Weather Stations Pressure Air Temp Water Temp Dewpoint Dewpoint Depression Visibility Wind Speed Wind Dir Waves Ship Positions

Meridien

Last reported at 2015-Jul-02 12:33 UTC. Time now 2015-Jul-02 21:28 UTC.
Position N 43°19' E 004°56'.

Length 21 m.

MMSI: 227321780.

Date/timePositionNaut miles runAvg speedWind from/ knotsBaromVisibWave heightAir tempDewpointWater temp
2015-Jul-02 12:33N 43°19' E 004°56'2 2.0
2015-Jul-02 11:33N 43°19' E 004°58'3 3.2
2015-Jul-02 10:29N 43°17' E 004°55'4 4.5
2015-Jul-02 09:32N 43°13' E 004°57'7 3.5
2015-Jul-02 07:33N 43°10' E 005°06'1 0.3
2015-Jul-02 04:18N 43°10' E 005°05'4 3.7
2015-Jul-02 03:08N 43°12' E 004°59'3 3.4
2015-Jul-02 02:23N 43°14' E 004°57'6 7.1
2015-Jul-02 01:32N 43°20' E 004°59'4 0.4
2015-Jul-01 14:27N 43°24' E 004°60'14 1.4
2015-Jul-01 04:29N 43°11' E 005°06'7 3.4
2015-Jul-01 02:21N 43°14' E 004°57'7 7.5
2015-Jul-01 01:24N 43°21' E 004°58'3 0.3
2015-Jun-30 14:34N 43°24' E 004°60'1110.4
2015-Jun-30 13:32N 43°14' E 005°01'3 3.4
2015-Jun-30 12:31N 43°10' E 005°02'2 2.2
2015-Jun-30 11:31N 43°10' E 005°05'2 0.2
2015-Jun-30 04:31N 43°11' E 005°07'4 3.7
2015-Jun-30 03:33N 43°11' E 005°02'4 3.6
2015-Jun-30 02:33N 43°13' E 004°57'8 6.6
2015-Jun-30 01:21N 43°21' E 004°58'4 0.4
2015-Jun-29 15:13N 43°24' E 004°60'0 0.0
2015-Jun-29 14:33N 43°24' E 004°60'8 8.1
2015-Jun-29 13:33N 43°16' E 005°02'4 0.6
2015-Jun-29 06:33N 43°13' E 004°59'5 3.6
2015-Jun-29 05:16N 43°13' E 005°05'6 2.1
2015-Jun-29 02:33N 43°13' E 004°57'8 6.6
2015-Jun-29 01:23N 43°21' E 004°58'  
2015-Jun-26 16:05N 43°24' E 004°59'0 0.5
2015-Jun-26 15:33N 43°24' E 004°59'0 0.4
2015-Jun-26 14:33N 43°24' E 004°60'7 6.5
2015-Jun-26 13:33N 43°18' E 005°02'8 1.5
2015-Jun-26 08:09N 43°10' E 005°05'3 0.5
2015-Jun-26 03:33N 43°11' E 005°02'4 3.7
2015-Jun-26 02:29N 43°13' E 004°57'5 5.4
2015-Jun-26 01:32N 43°18' E 004°58'6 0.5
2015-Jun-25 14:13N 43°24' E 004°60'6 9.8
2015-Jun-25 13:33N 43°18' E 005°01'4 4.4
2015-Jun-25 12:33N 43°14' E 005°02'4 3.9
2015-Jun-25 11:27N 43°09' E 005°01'4 3.9
2015-Jun-25 10:31N 43°07' E 004°58'3 2.7
2015-Jun-25 09:29N 43°04' E 004°56'4 3.9
2015-Jun-25 08:33N 43°03' E 004°52'4 4.0
2015-Jun-25 07:29N 43°03' E 004°46'3 3.0
2015-Jun-25 06:30N 43°02' E 004°42'3 3.5
2015-Jun-25 05:33N 43°04' E 004°45'5 4.0
2015-Jun-25 04:15N 43°09' E 004°48'3 3.9
2015-Jun-25 03:33N 43°12' E 004°49'4 3.6
2015-Jun-25 02:33N 43°15' E 004°51'7 6.7
2015-Jun-25 01:32N 43°20' E 004°57'5 0.5
2015-Jun-24 16:09N 43°24' E 004°60'0 0.0
2015-Jun-24 15:34N 43°24' E 004°60'0 0.0
2015-Jun-24 14:33N 43°24' E 004°60'7 7.0
2015-Jun-24 13:33N 43°17' E 004°59'6 1.4
2015-Jun-24 09:13N 43°12' E 005°01'5 1.2
2015-Jun-24 05:15N 43°16' E 004°58'4 6.4
2015-Jun-24 04:33N 43°20' E 004°57'3 0.1
2015-Jun-22 14:33N 43°23' E 004°59'10 9.9
2015-Jun-22 13:33N 43°14' E 005°04'3 2.9
2015-Jun-22 12:33N 43°11' E 005°05'  
Track history (hours):
 
Tides and Currents Weather Stations Pressure Air Temp Water Temp Dewpoint Dewpoint Depression Visibility Wind Speed Wind Dir Waves Ship Positions

Meridien

Last reported at 2015-Jul-02 12:33 UTC. Time now 2015-Jul-02 21:28 UTC.
Position N 43°19' E 004°56'.

Length 21 m.

MMSI: 227321780.

Date/timePositionNaut miles runAvg speedWind from/ knotsBaromVisibWave heightAir tempDewpointWater temp
2015-Jul-02 12:33N 43°19' E 004°56'2 2.0
2015-Jul-02 11:33N 43°19' E 004°58'3 3.2
2015-Jul-02 10:29N 43°17' E 004°55'4 4.5
2015-Jul-02 09:32N 43°13' E 004°57'7 3.5
2015-Jul-02 07:33N 43°10' E 005°06'1 0.3
2015-Jul-02 04:18N 43°10' E 005°05'4 3.7
2015-Jul-02 03:08N 43°12' E 004°59'3 3.4
2015-Jul-02 02:23N 43°14' E 004°57'6 7.1
2015-Jul-02 01:32N 43°20' E 004°59'4 0.4
2015-Jul-01 14:27N 43°24' E 004°60'14 1.4
2015-Jul-01 04:29N 43°11' E 005°06'7 3.4
2015-Jul-01 02:21N 43°14' E 004°57'7 7.5
2015-Jul-01 01:24N 43°21' E 004°58'3 0.3
2015-Jun-30 14:34N 43°24' E 004°60'1110.4
2015-Jun-30 13:32N 43°14' E 005°01'3 3.4
2015-Jun-30 12:31N 43°10' E 005°02'2 2.2
2015-Jun-30 11:31N 43°10' E 005°05'2 0.2
2015-Jun-30 04:31N 43°11' E 005°07'4 3.7
2015-Jun-30 03:33N 43°11' E 005°02'4 3.6
2015-Jun-30 02:33N 43°13' E 004°57'8 6.6
2015-Jun-30 01:21N 43°21' E 004°58'4 0.4
2015-Jun-29 15:13N 43°24' E 004°60'0 0.0
2015-Jun-29 14:33N 43°24' E 004°60'8 8.1
2015-Jun-29 13:33N 43°16' E 005°02'4 0.6
2015-Jun-29 06:33N 43°13' E 004°59'5 3.6
2015-Jun-29 05:16N 43°13' E 005°05'6 2.1
2015-Jun-29 02:33N 43°13' E 004°57'8 6.6
2015-Jun-29 01:23N 43°21' E 004°58'  
2015-Jun-26 16:05N 43°24' E 004°59'0 0.5
2015-Jun-26 15:33N 43°24' E 004°59'0 0.4
2015-Jun-26 14:33N 43°24' E 004°60'7 6.5
2015-Jun-26 13:33N 43°18' E 005°02'8 1.5
2015-Jun-26 08:09N 43°10' E 005°05'3 0.5
2015-Jun-26 03:33N 43°11' E 005°02'4 3.7
2015-Jun-26 02:29N 43°13' E 004°57'5 5.4
2015-Jun-26 01:32N 43°18' E 004°58'6 0.5
2015-Jun-25 14:13N 43°24' E 004°60'6 9.8
2015-Jun-25 13:33N 43°18' E 005°01'4 4.4
2015-Jun-25 12:33N 43°14' E 005°02'4 3.9
2015-Jun-25 11:27N 43°09' E 005°01'4 3.9
2015-Jun-25 10:31N 43°07' E 004°58'3 2.7
2015-Jun-25 09:29N 43°04' E 004°56'4 3.9
2015-Jun-25 08:33N 43°03' E 004°52'4 4.0
2015-Jun-25 07:29N 43°03' E 004°46'3 3.0
2015-Jun-25 06:30N 43°02' E 004°42'3 3.5
2015-Jun-25 05:33N 43°04' E 004°45'5 4.0
2015-Jun-25 04:15N 43°09' E 004°48'3 3.9
2015-Jun-25 03:33N 43°12' E 004°49'4 3.6
2015-Jun-25 02:33N 43°15' E 004°51'7 6.7
2015-Jun-25 01:32N 43°20' E 004°57'5 0.5
2015-Jun-24 16:09N 43°24' E 004°60'0 0.0
2015-Jun-24 15:34N 43°24' E 004°60'0 0.0
2015-Jun-24 14:33N 43°24' E 004°60'7 7.0
2015-Jun-24 13:33N 43°17' E 004°59'6 1.4
2015-Jun-24 09:13N 43°12' E 005°01'5 1.2
2015-Jun-24 05:15N 43°16' E 004°58'4 6.4
2015-Jun-24 04:33N 43°20' E 004°57'3 0.1
2015-Jun-22 14:33N 43°23' E 004°59'10 9.9
2015-Jun-22 13:33N 43°14' E 005°04'3 2.9
2015-Jun-22 12:33N 43°11' E 005°05'  

Dump ship's entire track history